sensor_id;sensor_type;location;lat;lon;timestamp;pressure;altitude;pressure_sealevel;temperature;humidity
55486;BME280;49383;-25.924;28.194;2022-12-24T00:01:56;85029.78;;;23.51;30.76
55486;BME280;49383;-25.924;28.194;2022-12-24T00:04:21;85029.47;;;23.76;30.75
55486;BME280;49383;-25.924;28.194;2022-12-24T00:06:47;85028.96;;;23.24;31.22
55486;BME280;49383;-25.924;28.194;2022-12-24T00:09:12;85029.94;;;23.48;31.42
55486;BME280;49383;-25.924;28.194;2022-12-24T00:11:37;85032.51;;;23.78;31.03
55486;BME280;49383;-25.924;28.194;2022-12-24T00:14:03;85031.85;;;23.48;30.53
55486;BME280;49383;-25.924;28.194;2022-12-24T00:16:29;85033.91;;;23.46;30.64
55486;BME280;49383;-25.924;28.194;2022-12-24T00:18:54;85034.94;;;23.70;31.06
55486;BME280;49383;-25.924;28.194;2022-12-24T00:21:20;85034.82;;;23.68;31.13
55486;BME280;49383;-25.924;28.194;2022-12-24T00:23:45;85036.25;;;23.37;31.57
55486;BME280;49383;-25.924;28.194;2022-12-24T00:26:10;85035.76;;;23.41;30.49
55486;BME280;49383;-25.924;28.194;2022-12-24T00:28:35;85033.37;;;23.66;30.68
55486;BME280;49383;-25.924;28.194;2022-12-24T00:33:25;85036.76;;;23.41;30.71
55486;BME280;49383;-25.924;28.194;2022-12-24T00:35:51;85034.65;;;23.69;31.31
55486;BME280;49383;-25.924;28.194;2022-12-24T00:38:15;85033.28;;;23.40;30.89
55486;BME280;49383;-25.924;28.194;2022-12-24T00:40:41;85037.58;;;23.39;30.69
55486;BME280;49383;-25.924;28.194;2022-12-24T00:43:06;85041.36;;;23.35;30.55
55486;BME280;49383;-25.924;28.194;2022-12-24T00:45:31;85042.68;;;23.33;30.83
55486;BME280;49383;-25.924;28.194;2022-12-24T00:47:56;85042.69;;;23.60;31.14
55486;BME280;49383;-25.924;28.194;2022-12-24T00:50:22;85046.30;;;23.33;30.79
55486;BME280;49383;-25.924;28.194;2022-12-24T00:52:47;85052.16;;;23.57;30.76
55486;BME280;49383;-25.924;28.194;2022-12-24T00:55:12;85052.16;;;23.33;30.46
55486;BME280;49383;-25.924;28.194;2022-12-24T00:57:38;85054.19;;;23.30;30.71
55486;BME280;49383;-25.924;28.194;2022-12-24T01:00:04;85053.41;;;23.28;30.88
55486;BME280;49383;-25.924;28.194;2022-12-24T01:02:28;85053.16;;;23.28;31.24
55486;BME280;49383;-25.924;28.194;2022-12-24T01:04:53;85053.33;;;23.54;31.01
55486;BME280;49383;-25.924;28.194;2022-12-24T01:07:19;85054.44;;;23.26;30.59
55486;BME280;49383;-25.924;28.194;2022-12-24T01:09:44;85057.67;;;23.27;30.49
55486;BME280;49383;-25.924;28.194;2022-12-24T01:12:09;85058.10;;;23.24;30.59
55486;BME280;49383;-25.924;28.194;2022-12-24T01:14:34;85057.17;;;23.23;30.84
55486;BME280;49383;-25.924;28.194;2022-12-24T01:16:59;85057.50;;;23.29;30.71
55486;BME280;49383;-25.924;28.194;2022-12-24T01:19:24;85055.02;;;23.02;30.92
55486;BME280;49383;-25.924;28.194;2022-12-24T01:21:49;85056.52;;;23.28;30.54
55486;BME280;49383;-25.924;28.194;2022-12-24T01:24:15;85059.89;;;23.50;30.90
55486;BME280;49383;-25.924;28.194;2022-12-24T01:26:40;85064.02;;;23.51;30.80
55486;BME280;49383;-25.924;28.194;2022-12-24T01:29:05;85069.23;;;23.23;30.79
55486;BME280;49383;-25.924;28.194;2022-12-24T01:31:31;85069.32;;;23.50;30.64
55486;BME280;49383;-25.924;28.194;2022-12-24T01:33:56;85069.68;;;23.26;30.88
55486;BME280;49383;-25.924;28.194;2022-12-24T01:36:21;85070.98;;;23.24;31.02
55486;BME280;49383;-25.924;28.194;2022-12-24T01:38:46;85070.86;;;23.24;30.89
55486;BME280;49383;-25.924;28.194;2022-12-24T01:41:15;85073.34;;;23.19;31.15
55486;BME280;49383;-25.924;28.194;2022-12-24T01:43:37;85075.62;;;23.21;30.76
55486;BME280;49383;-25.924;28.194;2022-12-24T01:46:04;85077.40;;;23.20;30.92
55486;BME280;49383;-25.924;28.194;2022-12-24T01:48:36;85077.64;;;23.49;30.96
55486;BME280;49383;-25.924;28.194;2022-12-24T01:51:03;85077.65;;;23.49;30.98
55486;BME280;49383;-25.924;28.194;2022-12-24T01:53:18;85077.04;;;23.24;30.81
55486;BME280;49383;-25.924;28.194;2022-12-24T01:55:45;85076.92;;;23.24;31.09
55486;BME280;49383;-25.924;28.194;2022-12-24T01:58:10;85075.89;;;23.47;31.09
55486;BME280;49383;-25.924;28.194;2022-12-24T02:00:35;85076.77;;;23.22;31.04
55486;BME280;49383;-25.924;28.194;2022-12-24T02:03:00;85077.20;;;23.16;31.01
55486;BME280;49383;-25.924;28.194;2022-12-24T02:05:29;85076.23;;;23.15;31.01
55486;BME280;49383;-25.924;28.194;2022-12-24T02:07:51;85075.42;;;23.40;30.97
55486;BME280;49383;-25.924;28.194;2022-12-24T02:10:16;85074.60;;;23.10;31.04
55486;BME280;49383;-25.924;28.194;2022-12-24T02:12:43;85075.15;;;23.35;31.13
55486;BME280;49383;-25.924;28.194;2022-12-24T02:15:10;85070.87;;;23.40;30.80
55486;BME280;49383;-25.924;28.194;2022-12-24T02:17:37;85073.53;;;23.15;30.72
55486;BME280;49383;-25.924;28.194;2022-12-24T02:22:28;85069.70;;;23.13;32.00
55486;BME280;49383;-25.924;28.194;2022-12-24T02:24:55;85068.59;;;23.42;31.76
55486;BME280;49383;-25.924;28.194;2022-12-24T02:27:20;85066.84;;;23.13;31.25
55486;BME280;49383;-25.924;28.194;2022-12-24T02:32:07;85066.42;;;23.35;31.05
55486;BME280;49383;-25.924;28.194;2022-12-24T02:34:30;85063.70;;;23.05;31.10
55486;BME280;49383;-25.924;28.194;2022-12-24T02:36:57;85061.60;;;23.35;31.42
55486;BME280;49383;-25.924;28.194;2022-12-24T02:39:23;85058.34;;;23.04;30.92
55486;BME280;49383;-25.924;28.194;2022-12-24T02:41:49;85060.08;;;23.30;30.81
55486;BME280;49383;-25.924;28.194;2022-12-24T02:44:09;85061.34;;;23.03;30.82
55486;BME280;49383;-25.924;28.194;2022-12-24T02:46:33;85059.77;;;23.24;30.85
55486;BME280;49383;-25.924;28.194;2022-12-24T02:48:59;85063.06;;;22.97;30.77
55486;BME280;49383;-25.924;28.194;2022-12-24T02:51:24;85066.32;;;23.25;30.50
55486;BME280;49383;-25.924;28.194;2022-12-24T02:53:49;85068.17;;;23.23;30.90
55486;BME280;49383;-25.924;28.194;2022-12-24T02:56:27;85073.19;;;23.24;30.69
55486;BME280;49383;-25.924;28.194;2022-12-24T02:58:49;85078.38;;;23.21;30.99
55486;BME280;49383;-25.924;28.194;2022-12-24T03:01:12;85081.12;;;22.96;31.05
55486;BME280;49383;-25.924;28.194;2022-12-24T03:03:36;85083.59;;;23.24;30.60
55486;BME280;49383;-25.924;28.194;2022-12-24T03:06:01;85086.91;;;22.97;30.99
55486;BME280;49383;-25.924;28.194;2022-12-24T03:08:28;85093.07;;;22.96;30.90
55486;BME280;49383;-25.924;28.194;2022-12-24T03:10:52;85091.64;;;23.24;30.80
55486;BME280;49383;-25.924;28.194;2022-12-24T03:13:14;85091.70;;;23.46;30.86
55486;BME280;49383;-25.924;28.194;2022-12-24T03:15:37;85094.03;;;22.97;30.62
55486;BME280;49383;-25.924;28.194;2022-12-24T03:18:02;85098.56;;;23.17;30.87
55486;BME280;49383;-25.924;28.194;2022-12-24T03:20:33;85101.48;;;22.86;31.13
55486;BME280;49383;-25.924;28.194;2022-12-24T03:22:52;85100.92;;;23.37;31.24
55486;BME280;49383;-25.924;28.194;2022-12-24T03:25:17;85101.90;;;23.17;30.83
55486;BME280;49383;-25.924;28.194;2022-12-24T03:27:43;85104.35;;;23.38;31.09
55486;BME280;49383;-25.924;28.194;2022-12-24T03:30:11;85105.93;;;23.17;30.97
55486;BME280;49383;-25.924;28.194;2022-12-24T03:32:33;85110.78;;;22.90;31.06
55486;BME280;49383;-25.924;28.194;2022-12-24T03:34:59;85112.71;;;23.17;31.01
55486;BME280;49383;-25.924;28.194;2022-12-24T03:37:24;85113.21;;;23.17;31.08
55486;BME280;49383;-25.924;28.194;2022-12-24T03:39:49;85114.93;;;22.94;31.10
55486;BME280;49383;-25.924;28.194;2022-12-24T03:42:15;85115.89;;;22.91;30.94
55486;BME280;49383;-25.924;28.194;2022-12-24T03:44:41;85117.01;;;23.39;31.24
55486;BME280;49383;-25.924;28.194;2022-12-24T03:47:05;85117.29;;;23.15;31.35
55486;BME280;49383;-25.924;28.194;2022-12-24T03:49:31;85121.70;;;23.37;31.03
55486;BME280;49383;-25.924;28.194;2022-12-24T03:51:56;85124.32;;;23.35;31.20
55486;BME280;49383;-25.924;28.194;2022-12-24T03:54:22;85127.10;;;23.37;31.12
55486;BME280;49383;-25.924;28.194;2022-12-24T03:56:47;85125.62;;;23.15;31.13
55486;BME280;49383;-25.924;28.194;2022-12-24T03:59:12;85127.22;;;23.37;31.02
55486;BME280;49383;-25.924;28.194;2022-12-24T04:01:37;85132.58;;;23.15;31.09
55486;BME280;49383;-25.924;28.194;2022-12-24T04:04:02;85135.65;;;22.85;31.30
55486;BME280;49383;-25.924;28.194;2022-12-24T04:06:28;85135.32;;;23.13;31.20
55486;BME280;49383;-25.924;28.194;2022-12-24T04:08:53;85139.40;;;22.92;31.03
55486;BME280;49383;-25.924;28.194;2022-12-24T04:11:18;85143.42;;;23.41;31.44
55486;BME280;49383;-25.924;28.194;2022-12-24T04:13:44;85151.02;;;22.96;31.76
55486;BME280;49383;-25.924;28.194;2022-12-24T04:16:11;85155.40;;;23.26;32.54
55486;BME280;49383;-25.924;28.194;2022-12-24T04:18:36;85153.40;;;23.11;33.25
55486;BME280;49383;-25.924;28.194;2022-12-24T04:21:00;85157.11;;;23.38;33.19
55486;BME280;49383;-25.924;28.194;2022-12-24T04:23:25;85157.66;;;23.17;33.07
55486;BME280;49383;-25.924;28.194;2022-12-24T04:25:51;85161.85;;;22.92;32.84
55486;BME280;49383;-25.924;28.194;2022-12-24T04:28:17;85169.47;;;23.20;33.85
55486;BME280;49383;-25.924;28.194;2022-12-24T04:30:43;85171.31;;;23.19;33.41
55486;BME280;49383;-25.924;28.194;2022-12-24T04:33:09;85173.19;;;23.45;33.11
55486;BME280;49383;-25.924;28.194;2022-12-24T04:35:33;85173.47;;;23.16;32.87
55486;BME280;49383;-25.924;28.194;2022-12-24T04:37:59;85172.55;;;23.13;32.94
55486;BME280;49383;-25.924;28.194;2022-12-24T04:40:24;85169.53;;;23.08;32.78
55486;BME280;49383;-25.924;28.194;2022-12-24T04:42:50;85169.88;;;23.33;33.20
55486;BME280;49383;-25.924;28.194;2022-12-24T04:45:16;85170.41;;;23.44;33.77
55486;BME280;49383;-25.924;28.194;2022-12-24T04:47:41;85174.33;;;23.16;33.27
55486;BME280;49383;-25.924;28.194;2022-12-24T04:50:08;85175.81;;;23.12;33.38
55486;BME280;49383;-25.924;28.194;2022-12-24T04:52:33;85174.68;;;23.17;33.73
55486;BME280;49383;-25.924;28.194;2022-12-24T04:54:58;85179.44;;;23.16;33.35
55486;BME280;49383;-25.924;28.194;2022-12-24T04:57:23;85179.60;;;23.54;34.51
55486;BME280;49383;-25.924;28.194;2022-12-24T04:59:48;85178.82;;;23.60;34.06
55486;BME280;49383;-25.924;28.194;2022-12-24T05:02:13;85178.13;;;23.38;33.94
55486;BME280;49383;-25.924;28.194;2022-12-24T05:04:38;85181.35;;;23.42;34.18
55486;BME280;49383;-25.924;28.194;2022-12-24T05:07:04;85185.01;;;23.46;33.83
55486;BME280;49383;-25.924;28.194;2022-12-24T05:09:29;85189.69;;;23.52;33.47
55486;BME280;49383;-25.924;28.194;2022-12-24T05:11:54;85195.13;;;23.62;33.72
55486;BME280;49383;-25.924;28.194;2022-12-24T05:14:19;85201.31;;;23.22;33.51
55486;BME280;49383;-25.924;28.194;2022-12-24T05:16:44;85200.43;;;23.24;33.77
55486;BME280;49383;-25.924;28.194;2022-12-24T05:19:10;85201.18;;;23.66;33.41
55486;BME280;49383;-25.924;28.194;2022-12-24T05:21:35;85202.30;;;23.73;33.69
55486;BME280;49383;-25.924;28.194;2022-12-24T05:24:00;85201.05;;;23.41;34.25
55486;BME280;49383;-25.924;28.194;2022-12-24T05:26:29;85198.74;;;23.42;33.76
55486;BME280;49383;-25.924;28.194;2022-12-24T05:28:52;85205.48;;;23.48;33.90
55486;BME280;49383;-25.924;28.194;2022-12-24T05:31:16;85208.95;;;23.94;33.84
55486;BME280;49383;-25.924;28.194;2022-12-24T05:33:40;85211.49;;;23.74;33.62
55486;BME280;49383;-25.924;28.194;2022-12-24T05:36:06;85210.92;;;23.82;34.17
55486;BME280;49383;-25.924;28.194;2022-12-24T05:38:31;85207.44;;;23.88;33.69
55486;BME280;49383;-25.924;28.194;2022-12-24T05:40:56;85209.35;;;23.65;33.59
55486;BME280;49383;-25.924;28.194;2022-12-24T05:43:21;85214.02;;;23.66;33.51
55486;BME280;49383;-25.924;28.194;2022-12-24T05:45:46;85213.67;;;23.73;33.84
55486;BME280;49383;-25.924;28.194;2022-12-24T05:48:11;85215.53;;;23.77;34.43
55486;BME280;49383;-25.924;28.194;2022-12-24T05:50:38;85219.14;;;23.82;34.36
55486;BME280;49383;-25.924;28.194;2022-12-24T05:53:01;85220.86;;;23.80;33.89
55486;BME280;49383;-25.924;28.194;2022-12-24T05:55:27;85223.23;;;23.52;33.65
55486;BME280;49383;-25.924;28.194;2022-12-24T05:57:52;85222.15;;;23.80;33.17
55486;BME280;49383;-25.924;28.194;2022-12-24T06:00:19;85222.41;;;23.97;32.92
55486;BME280;49383;-25.924;28.194;2022-12-24T06:02:43;85225.42;;;23.76;33.46
55486;BME280;49383;-25.924;28.194;2022-12-24T06:05:09;85225.31;;;23.80;33.25
55486;BME280;49383;-25.924;28.194;2022-12-24T06:07:34;85224.80;;;23.80;32.70
55486;BME280;49383;-25.924;28.194;2022-12-24T06:09:58;85225.93;;;23.77;33.07
55486;BME280;49383;-25.924;28.194;2022-12-24T06:12:24;85226.54;;;23.76;33.15
55486;BME280;49383;-25.924;28.194;2022-12-24T06:14:49;85231.56;;;23.81;33.28
55486;BME280;49383;-25.924;28.194;2022-12-24T06:17:14;85233.71;;;23.93;33.23
55486;BME280;49383;-25.924;28.194;2022-12-24T06:19:39;85235.51;;;23.77;33.36
55486;BME280;49383;-25.924;28.194;2022-12-24T06:22:04;85237.05;;;24.02;33.81
55486;BME280;49383;-25.924;28.194;2022-12-24T06:24:29;85236.43;;;24.05;33.22
55486;BME280;49383;-25.924;28.194;2022-12-24T06:26:54;85233.24;;;24.08;33.16
55486;BME280;49383;-25.924;28.194;2022-12-24T06:29:19;85235.31;;;24.13;33.64
55486;BME280;49383;-25.924;28.194;2022-12-24T06:31:45;85236.92;;;24.17;33.28
55486;BME280;49383;-25.924;28.194;2022-12-24T06:34:09;85236.02;;;23.90;33.42
55486;BME280;49383;-25.924;28.194;2022-12-24T06:36:35;85232.94;;;24.19;33.22
55486;BME280;49383;-25.924;28.194;2022-12-24T06:39:01;85228.59;;;23.90;33.56
55486;BME280;49383;-25.924;28.194;2022-12-24T06:41:27;85226.18;;;24.19;33.92
55486;BME280;49383;-25.924;28.194;2022-12-24T06:43:52;85223.30;;;24.00;33.90
55486;BME280;49383;-25.924;28.194;2022-12-24T06:46:18;85221.10;;;24.30;33.91
55486;BME280;49383;-25.924;28.194;2022-12-24T06:48:43;85212.11;;;24.01;33.68
55486;BME280;49383;-25.924;28.194;2022-12-24T06:51:08;85208.99;;;24.32;33.73
55486;BME280;49383;-25.924;28.194;2022-12-24T06:53:33;85200.57;;;24.37;33.63
55486;BME280;49383;-25.924;28.194;2022-12-24T06:56:02;85184.78;;;24.15;33.81
55486;BME280;49383;-25.924;28.194;2022-12-24T06:58:23;85171.29;;;24.15;33.66
55486;BME280;49383;-25.924;28.194;2022-12-24T07:00:48;85167.95;;;24.45;33.58
55486;BME280;49383;-25.924;28.194;2022-12-24T07:03:13;85169.72;;;24.46;33.59
55486;BME280;49383;-25.924;28.194;2022-12-24T07:05:39;85172.95;;;24.50;34.15
55486;BME280;49383;-25.924;28.194;2022-12-24T07:08:04;85178.25;;;24.56;34.07
55486;BME280;49383;-25.924;28.194;2022-12-24T07:10:29;85184.11;;;24.61;33.98
55486;BME280;49383;-25.924;28.194;2022-12-24T07:12:53;85181.92;;;24.62;34.02
55486;BME280;49383;-25.924;28.194;2022-12-24T07:15:19;85179.12;;;24.39;33.68
55486;BME280;49383;-25.924;28.194;2022-12-24T07:17:44;85170.73;;;24.65;33.49
55486;BME280;49383;-25.924;28.194;2022-12-24T07:20:12;85162.99;;;24.71;34.62
55486;BME280;49383;-25.924;28.194;2022-12-24T07:22:34;85154.43;;;24.50;34.22
55486;BME280;49383;-25.924;28.194;2022-12-24T07:25:00;85154.56;;;24.77;34.09
55486;BME280;49383;-25.924;28.194;2022-12-24T07:27:25;85152.81;;;24.51;33.88
55486;BME280;49383;-25.924;28.194;2022-12-24T07:29:50;85161.58;;;24.80;33.68
55486;BME280;49383;-25.924;28.194;2022-12-24T07:32:15;85163.28;;;24.49;33.86
55486;BME280;49383;-25.924;28.194;2022-12-24T07:34:40;85157.58;;;24.54;33.61
55486;BME280;49383;-25.924;28.194;2022-12-24T07:37:06;85152.87;;;24.54;33.56
55486;BME280;49383;-25.924;28.194;2022-12-24T07:39:30;85153.82;;;24.53;33.48
55486;BME280;49383;-25.924;28.194;2022-12-24T07:41:55;85158.11;;;24.50;33.24
55486;BME280;49383;-25.924;28.194;2022-12-24T07:44:21;85170.17;;;24.49;33.37
55486;BME280;49383;-25.924;28.194;2022-12-24T07:46:46;85171.84;;;24.82;33.17
55486;BME280;49383;-25.924;28.194;2022-12-24T07:49:11;85173.54;;;24.58;33.10
55486;BME280;49383;-25.924;28.194;2022-12-24T07:51:37;85168.98;;;24.87;32.76
55486;BME280;49383;-25.924;28.194;2022-12-24T07:54:02;85166.79;;;24.57;33.26
55486;BME280;49383;-25.924;28.194;2022-12-24T07:56:27;85167.59;;;24.82;33.38
55486;BME280;49383;-25.924;28.194;2022-12-24T07:58:52;85171.86;;;24.49;34.08
55486;BME280;49383;-25.924;28.194;2022-12-24T08:01:17;85174.25;;;24.60;33.51
55486;BME280;49383;-25.924;28.194;2022-12-24T08:03:42;85169.16;;;24.64;33.39
55486;BME280;49383;-25.924;28.194;2022-12-24T08:06:07;85177.56;;;24.66;33.49
55486;BME280;49383;-25.924;28.194;2022-12-24T08:08:32;85178.72;;;24.70;33.43
55486;BME280;49383;-25.924;28.194;2022-12-24T08:11:01;85173.68;;;24.66;33.66
55486;BME280;49383;-25.924;28.194;2022-12-24T08:13:22;85174.26;;;24.50;33.76
55486;BME280;49383;-25.924;28.194;2022-12-24T08:15:47;85180.06;;;24.67;33.76
55486;BME280;49383;-25.924;28.194;2022-12-24T08:18:12;85177.46;;;24.82;33.82
55486;BME280;49383;-25.924;28.194;2022-12-24T08:20:39;85173.30;;;24.93;33.99
55486;BME280;49383;-25.924;28.194;2022-12-24T08:23:04;85167.79;;;25.00;33.97
55486;BME280;49383;-25.924;28.194;2022-12-24T08:25:29;85170.88;;;25.03;34.09
55486;BME280;49383;-25.924;28.194;2022-12-24T08:27:55;85164.95;;;25.09;34.17
55486;BME280;49383;-25.924;28.194;2022-12-24T08:30:20;85158.46;;;25.13;34.15
55486;BME280;49383;-25.924;28.194;2022-12-24T08:32:45;85153.07;;;25.16;34.15
55486;BME280;49383;-25.924;28.194;2022-12-24T08:35:10;85148.30;;;25.40;34.09
55486;BME280;49383;-25.924;28.194;2022-12-24T08:37:35;85144.57;;;25.21;34.12
55486;BME280;49383;-25.924;28.194;2022-12-24T08:40:00;85141.61;;;25.27;34.10
55486;BME280;49383;-25.924;28.194;2022-12-24T08:42:26;85137.05;;;25.35;33.97
55486;BME280;49383;-25.924;28.194;2022-12-24T08:44:51;85136.48;;;25.11;34.05
55486;BME280;49383;-25.924;28.194;2022-12-24T08:47:16;85136.55;;;25.39;34.16
55486;BME280;49383;-25.924;28.194;2022-12-24T08:49:42;85136.48;;;25.42;34.14
55486;BME280;49383;-25.924;28.194;2022-12-24T08:52:08;85132.08;;;25.16;34.06
55486;BME280;49383;-25.924;28.194;2022-12-24T08:54:33;85129.92;;;25.44;33.95
55486;BME280;49383;-25.924;28.194;2022-12-24T08:56:57;85121.44;;;25.48;33.87
55486;BME280;49383;-25.924;28.194;2022-12-24T08:59:23;85111.50;;;25.53;33.73
55486;BME280;49383;-25.924;28.194;2022-12-24T09:01:49;85111.99;;;25.53;33.74
55486;BME280;49383;-25.924;28.194;2022-12-24T09:04:14;85117.68;;;25.08;33.69
55486;BME280;49383;-25.924;28.194;2022-12-24T09:06:39;85113.78;;;25.09;33.66
55486;BME280;49383;-25.924;28.194;2022-12-24T09:09:05;85098.91;;;25.60;33.60
55486;BME280;49383;-25.924;28.194;2022-12-24T09:11:32;85093.38;;;25.37;33.53
55486;BME280;49383;-25.924;28.194;2022-12-24T09:13:55;85093.64;;;25.66;33.48
55486;BME280;49383;-25.924;28.194;2022-12-24T09:16:20;85089.90;;;25.68;33.46
55486;BME280;49383;-25.924;28.194;2022-12-24T09:18:45;85091.82;;;25.44;33.42
55486;BME280;49383;-25.924;28.194;2022-12-24T09:21:12;85090.75;;;25.43;33.44
55486;BME280;49383;-25.924;28.194;2022-12-24T09:23:36;85088.89;;;25.46;33.39
55486;BME280;49383;-25.924;28.194;2022-12-24T09:26:04;85087.29;;;25.46;33.40
55486;BME280;49383;-25.924;28.194;2022-12-24T09:28:27;85091.49;;;25.74;33.38
55486;BME280;49383;-25.924;28.194;2022-12-24T09:30:58;85090.74;;;25.74;33.38
55486;BME280;49383;-25.924;28.194;2022-12-24T09:33:18;85093.00;;;25.72;33.32
55486;BME280;49383;-25.924;28.194;2022-12-24T09:35:43;85091.68;;;25.75;33.28
55486;BME280;49383;-25.924;28.194;2022-12-24T09:38:09;85090.22;;;25.25;33.22
55486;BME280;49383;-25.924;28.194;2022-12-24T09:40:37;85088.81;;;25.73;33.21
55486;BME280;49383;-25.924;28.194;2022-12-24T09:43:01;85095.32;;;25.69;33.25
55486;BME280;49383;-25.924;28.194;2022-12-24T09:45:29;85087.24;;;25.43;33.05
55486;BME280;49383;-25.924;28.194;2022-12-24T09:47:53;85081.37;;;25.70;33.14
55486;BME280;49383;-25.924;28.194;2022-12-24T09:50:23;85079.61;;;25.63;33.27
55486;BME280;49383;-25.924;28.194;2022-12-24T09:52:43;85085.86;;;25.63;33.28
55486;BME280;49383;-25.924;28.194;2022-12-24T09:55:14;85085.35;;;25.63;33.25
55486;BME280;49383;-25.924;28.194;2022-12-24T09:57:35;85082.80;;;25.65;33.34
55486;BME280;49383;-25.924;28.194;2022-12-24T09:59:57;85079.71;;;25.53;33.38
55486;BME280;49383;-25.924;28.194;2022-12-24T10:02:22;85079.40;;;25.60;33.23
55486;BME280;49383;-25.924;28.194;2022-12-24T10:04:48;85074.01;;;25.58;33.32
55486;BME280;49383;-25.924;28.194;2022-12-24T10:07:22;85072.28;;;25.37;33.25
55486;BME280;49383;-25.924;28.194;2022-12-24T10:09:42;85074.97;;;25.12;33.14
55486;BME280;49383;-25.924;28.194;2022-12-24T10:12:09;85067.81;;;25.56;33.39
55486;BME280;49383;-25.924;28.194;2022-12-24T10:14:39;85062.59;;;25.64;33.26
55486;BME280;49383;-25.924;28.194;2022-12-24T10:17:00;85061.47;;;25.65;33.32
55486;BME280;49383;-25.924;28.194;2022-12-24T10:19:22;85064.91;;;25.62;33.22
55486;BME280;49383;-25.924;28.194;2022-12-24T10:21:54;85058.09;;;25.64;33.54
55486;BME280;49383;-25.924;28.194;2022-12-24T10:24:14;85063.97;;;25.51;33.43
55486;BME280;49383;-25.924;28.194;2022-12-24T10:26:39;85061.01;;;25.49;33.55
55486;BME280;49383;-25.924;28.194;2022-12-24T10:29:04;85057.82;;;25.44;33.54
55486;BME280;49383;-25.924;28.194;2022-12-24T10:31:28;85055.02;;;25.52;33.35
55486;BME280;49383;-25.924;28.194;2022-12-24T10:33:54;85053.69;;;25.68;33.33
55486;BME280;49383;-25.924;28.194;2022-12-24T10:36:18;85053.48;;;25.42;33.48
55486;BME280;49383;-25.924;28.194;2022-12-24T10:38:41;85054.65;;;25.31;33.40
55486;BME280;49383;-25.924;28.194;2022-12-24T10:41:07;85055.83;;;25.15;33.58
55486;BME280;49383;-25.924;28.194;2022-12-24T10:43:31;85049.47;;;25.39;33.50
55486;BME280;49383;-25.924;28.194;2022-12-24T10:45:58;85048.01;;;25.35;33.50
55486;BME280;49383;-25.924;28.194;2022-12-24T10:48:24;85046.97;;;25.54;33.09
55486;BME280;49383;-25.924;28.194;2022-12-24T10:50:53;85048.59;;;25.51;32.97
55486;BME280;49383;-25.924;28.194;2022-12-24T10:53:18;85044.51;;;25.18;33.06
55486;BME280;49383;-25.924;28.194;2022-12-24T10:55:36;85041.25;;;25.11;32.90
55486;BME280;49383;-25.924;28.194;2022-12-24T10:58:03;85035.37;;;25.30;32.83
55486;BME280;49383;-25.924;28.194;2022-12-24T11:00:26;85039.91;;;25.38;32.76
55486;BME280;49383;-25.924;28.194;2022-12-24T11:07:43;85029.92;;;25.24;32.39
55486;BME280;49383;-25.924;28.194;2022-12-24T11:10:12;85031.72;;;25.00;32.20
55486;BME280;49383;-25.924;28.194;2022-12-24T11:12:36;85032.09;;;25.16;32.17
55486;BME280;49383;-25.924;28.194;2022-12-24T11:15:04;85022.07;;;25.19;31.86
55486;BME280;49383;-25.924;28.194;2022-12-24T11:17:23;85027.46;;;25.29;31.68
55486;BME280;49383;-25.924;28.194;2022-12-24T11:19:49;85027.33;;;25.18;31.41
55486;BME280;49383;-25.924;28.194;2022-12-24T11:22:20;85026.77;;;25.21;31.27
55486;BME280;49383;-25.924;28.194;2022-12-24T11:24:39;85024.45;;;25.26;31.13
55486;BME280;49383;-25.924;28.194;2022-12-24T11:29:31;85014.84;;;25.67;30.56
55486;BME280;49383;-25.924;28.194;2022-12-24T11:34:25;85006.41;;;25.17;30.37
55486;BME280;49383;-25.924;28.194;2022-12-24T11:36:48;85004.04;;;25.42;30.67
55486;BME280;49383;-25.924;28.194;2022-12-24T11:39:19;85002.27;;;24.87;30.69
55486;BME280;49383;-25.924;28.194;2022-12-24T11:41:39;84999.01;;;25.08;30.86
55486;BME280;49383;-25.924;28.194;2022-12-24T11:44:04;84993.31;;;24.89;30.57
55486;BME280;49383;-25.924;28.194;2022-12-24T11:46:37;84989.78;;;25.13;30.45
55486;BME280;49383;-25.924;28.194;2022-12-24T11:51:23;84980.62;;;25.17;30.12
55486;BME280;49383;-25.924;28.194;2022-12-24T11:53:51;84984.52;;;25.03;30.64
55486;BME280;49383;-25.924;28.194;2022-12-24T11:56:21;84984.48;;;25.12;30.59
55486;BME280;49383;-25.924;28.194;2022-12-24T11:58:41;84983.74;;;25.40;31.13
55486;BME280;49383;-25.924;28.194;2022-12-24T12:01:11;84976.09;;;25.52;31.07
55486;BME280;49383;-25.924;28.194;2022-12-24T12:03:32;84979.94;;;25.24;31.24
55486;BME280;49383;-25.924;28.194;2022-12-24T12:05:55;84982.47;;;25.53;31.72
55486;BME280;49383;-25.924;28.194;2022-12-24T12:08:21;84977.18;;;25.23;31.33
55486;BME280;49383;-25.924;28.194;2022-12-24T12:10:46;84974.13;;;25.41;30.96
55486;BME280;49383;-25.924;28.194;2022-12-24T12:13:13;84977.35;;;25.19;30.89
55486;BME280;49383;-25.924;28.194;2022-12-24T12:15:41;84973.48;;;25.39;30.45
55486;BME280;49383;-25.924;28.194;2022-12-24T12:18:08;84966.93;;;25.33;29.75
55486;BME280;49383;-25.924;28.194;2022-12-24T12:20:31;84965.79;;;25.24;28.81
55486;BME280;49383;-25.924;28.194;2022-12-24T12:22:59;84962.42;;;25.20;28.89
55486;BME280;49383;-25.924;28.194;2022-12-24T12:25:22;84959.43;;;25.51;27.56
55486;BME280;49383;-25.924;28.194;2022-12-24T12:27:46;84955.89;;;25.33;27.76
55486;BME280;49383;-25.924;28.194;2022-12-24T12:30:15;84955.03;;;25.26;28.03
55486;BME280;49383;-25.924;28.194;2022-12-24T12:32:41;84949.58;;;25.30;27.51
55486;BME280;49383;-25.924;28.194;2022-12-24T12:35:08;84950.62;;;25.27;27.73
55486;BME280;49383;-25.924;28.194;2022-12-24T12:37:30;84949.93;;;25.42;27.66
55486;BME280;49383;-25.924;28.194;2022-12-24T12:39:51;84946.29;;;25.46;27.73
55486;BME280;49383;-25.924;28.194;2022-12-24T12:42:23;84945.34;;;25.23;27.48
55486;BME280;49383;-25.924;28.194;2022-12-24T12:44:50;84938.60;;;25.02;29.14
55486;BME280;49383;-25.924;28.194;2022-12-24T12:47:20;84934.35;;;25.31;27.54
55486;BME280;49383;-25.924;28.194;2022-12-24T12:49:38;84933.18;;;25.14;28.31